createdAt,value
2023-02-12T00:01:22.755Z,73.87
2023-02-12T00:03:49.874Z,74.31
2023-02-12T00:06:16.952Z,74.25
2023-02-12T00:08:44.222Z,73.99
2023-02-12T00:11:14.788Z,74.26
2023-02-12T00:13:42.568Z,73.98
2023-02-12T00:16:15.707Z,74.12
2023-02-12T00:18:44.046Z,73.89
2023-02-12T00:21:12.598Z,74.32
2023-02-12T00:23:43.577Z,73.98
2023-02-12T00:26:13.085Z,73.37
2023-02-12T00:28:45.555Z,74.29
2023-02-12T00:31:20.753Z,73.89
2023-02-12T00:33:48.668Z,74.29
2023-02-12T00:36:22.966Z,74.15
2023-02-12T00:38:53.472Z,73.93
2023-02-12T00:41:21.932Z,74.47
2023-02-12T00:43:50.509Z,74.40
2023-02-12T00:46:17.566Z,74.05
2023-02-12T00:48:44.837Z,74.13
2023-02-12T00:51:11.833Z,74.10
2023-02-12T00:53:38.832Z,74.12
2023-02-12T00:56:07.566Z,74.35
2023-02-12T00:58:34.577Z,74.24
2023-02-12T01:01:01.615Z,74.11
2023-02-12T01:03:28.587Z,74.28
2023-02-12T01:05:57.308Z,74.33
2023-02-12T01:08:24.688Z,74.25
2023-02-12T01:11:00.861Z,74.12
2023-02-12T01:13:30.977Z,74.30
2023-02-12T01:16:13.952Z,74.15
2023-02-12T01:18:42.167Z,74.43
2023-02-12T01:21:15.571Z,74.18
2023-02-12T01:23:43.559Z,74.04
2023-02-12T01:26:12.278Z,74.48
2023-02-12T01:28:41.555Z,74.19
2023-02-12T01:31:20.030Z,73.79
2023-02-12T01:33:53.189Z,74.50
2023-02-12T01:36:20.837Z,74.50
2023-02-12T01:38:49.098Z,74.28
2023-02-12T01:41:22.552Z,74.64
2023-02-12T01:44:18.074Z,73.83
2023-02-12T01:46:49.163Z,74.59
2023-02-12T01:49:37.672Z,73.94
2023-02-12T01:52:27.274Z,74.11
2023-02-12T01:54:59.443Z,74.39
2023-02-12T01:57:31.096Z,74.19
2023-02-12T02:00:00.421Z,74.18
2023-02-12T02:02:28.466Z,74.46
2023-02-12T02:05:02.863Z,74.00
2023-02-12T02:07:31.088Z,74.56
2023-02-12T02:09:58.866Z,74.40
2023-02-12T02:12:48.778Z,74.03
2023-02-12T02:15:17.383Z,74.30
2023-02-12T02:18:06.200Z,73.99
2023-02-12T02:21:07.759Z,74.37
2023-02-12T02:23:56.912Z,74.33
2023-02-12T02:27:07.959Z,74.01
2023-02-12T02:30:14.283Z,73.84
2023-02-12T02:33:35.253Z,73.78
2023-02-12T02:36:35.235Z,74.19
2023-02-12T02:39:27.999Z,74.01
2023-02-12T02:42:20.994Z,74.07
2023-02-12T02:45:04.747Z,74.56
2023-02-12T02:47:46.834Z,74.17
2023-02-12T02:50:23.765Z,74.46
2023-02-12T02:52:57.089Z,74.37
2023-02-12T02:55:28.952Z,74.26
2023-02-12T02:58:04.551Z,74.44
2023-02-12T03:00:49.620Z,74.33
2023-02-12T03:03:48.596Z,74.24
2023-02-12T03:06:45.020Z,73.90
2023-02-12T03:09:43.788Z,73.96
2023-02-12T03:12:29.518Z,74.23
2023-02-12T03:15:18.771Z,74.28
2023-02-12T03:17:48.872Z,74.64
2023-02-12T03:20:29.238Z,74.48
2023-02-12T03:23:10.094Z,74.48
2023-02-12T03:26:01.433Z,74.12
2023-02-12T03:28:38.363Z,74.35
2023-02-12T03:31:36.181Z,74.66
2023-02-12T03:34:29.583Z,74.08
2023-02-12T03:37:10.605Z,74.21
2023-02-12T03:40:10.834Z,74.10
2023-02-12T03:43:12.789Z,73.90
2023-02-12T03:46:02.065Z,75.08
2023-02-12T03:49:04.015Z,74.44
2023-02-12T03:51:44.089Z,74.98
2023-02-12T03:54:14.033Z,75.15
2023-02-12T03:56:52.138Z,75.35
2023-02-12T03:59:24.169Z,74.63
2023-02-12T04:01:54.347Z,74.72
2023-02-12T04:04:23.457Z,75.03
2023-02-12T04:06:52.523Z,75.11
2023-02-12T04:09:21.094Z,75.01
2023-02-12T04:12:31.137Z,74.49
2023-02-12T04:15:06.714Z,74.97
2023-02-12T04:17:57.434Z,74.65
2023-02-12T04:20:52.395Z,74.58
2023-02-12T04:23:44.094Z,74.63
2023-02-12T04:26:17.574Z,74.77
2023-02-12T04:29:11.300Z,74.44
2023-02-12T04:32:17.139Z,74.13
2023-02-12T04:35:02.813Z,74.35
2023-02-12T04:37:49.044Z,74.59
2023-02-12T04:40:20.597Z,74.75
2023-02-12T04:42:50.761Z,74.83
2023-02-12T04:45:30.529Z,74.16
2023-02-12T04:47:57.633Z,75.12
2023-02-12T04:50:25.761Z,75.00
2023-02-12T04:52:52.806Z,74.98
2023-02-12T04:55:19.779Z,74.70
2023-02-12T04:57:47.624Z,74.85
2023-02-12T05:00:17.089Z,75.23
2023-02-12T05:02:44.048Z,75.38
2023-02-12T05:05:11.143Z,75.07
2023-02-12T05:07:38.126Z,75.19
2023-02-12T05:10:05.823Z,75.33
2023-02-12T05:12:32.745Z,74.90
2023-02-12T05:14:59.684Z,75.26
2023-02-12T05:17:26.632Z,74.98
2023-02-12T05:19:53.578Z,74.97
2023-02-12T05:22:20.536Z,75.16
2023-02-12T05:24:47.744Z,74.95
2023-02-12T05:27:14.750Z,75.20
2023-02-12T05:29:41.822Z,75.03
2023-02-12T05:32:09.490Z,74.97
2023-02-12T05:34:37.206Z,74.93
2023-02-12T05:37:04.238Z,74.99
2023-02-12T05:39:31.229Z,75.13
2023-02-12T05:41:58.125Z,75.18
2023-02-12T05:44:25.056Z,75.07
2023-02-12T05:46:52.032Z,75.07
2023-02-12T05:49:18.990Z,74.79
2023-02-12T05:51:45.962Z,74.94
2023-02-12T05:54:12.869Z,75.10
2023-02-12T05:56:47.073Z,74.73
2023-02-12T05:59:20.803Z,74.45
2023-02-12T06:01:50.204Z,74.75
2023-02-12T06:04:24.818Z,75.00
2023-02-12T06:06:56.139Z,75.05
2023-02-12T06:09:24.026Z,75.10
2023-02-12T06:11:51.739Z,75.26
2023-02-12T06:14:20.395Z,75.07
2023-02-12T06:16:50.169Z,74.80
2023-02-12T06:19:17.779Z,75.20
2023-02-12T06:21:45.164Z,74.94
2023-02-12T06:24:16.834Z,75.03
2023-02-12T06:26:44.095Z,75.03
2023-02-12T06:29:11.434Z,75.02
2023-02-12T06:31:38.775Z,75.01
2023-02-12T06:34:09.376Z,75.30
2023-02-12T06:36:42.628Z,75.53
2023-02-12T06:39:10.873Z,75.25
2023-02-12T06:41:38.376Z,75.68
2023-02-12T06:44:06.432Z,75.63
2023-02-12T06:46:33.962Z,75.43
2023-02-12T06:49:01.235Z,75.47
2023-02-12T06:51:29.618Z,75.52
2023-02-12T06:53:56.586Z,75.56
2023-02-12T06:56:25.090Z,75.67
2023-02-12T06:58:58.487Z,75.77
2023-02-12T07:01:28.558Z,76.43
2023-02-12T07:03:59.215Z,75.93
2023-02-12T07:06:28.367Z,75.75
2023-02-12T07:08:56.865Z,76.02
2023-02-12T07:11:30.756Z,76.16
2023-02-12T07:13:57.879Z,76.25
2023-02-12T07:16:25.814Z,76.55
2023-02-12T07:18:52.836Z,76.82
2023-02-12T07:21:20.282Z,76.60
2023-02-12T07:23:51.413Z,76.12
2023-02-12T07:26:21.227Z,76.81
2023-02-12T07:28:49.194Z,76.53
2023-02-12T07:31:23.162Z,76.25
2023-02-12T07:33:55.301Z,76.71
2023-02-12T07:36:23.644Z,76.50
2023-02-12T07:38:50.550Z,76.74
2023-02-12T07:41:30.681Z,76.96
2023-02-12T07:44:03.551Z,76.68
2023-02-12T07:46:52.950Z,76.57
2023-02-12T07:49:22.192Z,76.77
2023-02-12T07:51:50.357Z,76.69
2023-02-12T07:54:17.754Z,76.54
2023-02-12T07:56:46.822Z,76.76
2023-02-12T07:59:17.728Z,77.37
2023-02-12T08:01:50.785Z,77.24
2023-02-12T08:04:23.929Z,76.97
2023-02-12T08:06:54.186Z,77.05
2023-02-12T08:09:30.734Z,76.98
2023-02-12T08:11:57.882Z,77.48
2023-02-12T08:14:26.387Z,77.33
2023-02-12T08:16:53.452Z,77.65
2023-02-12T08:19:25.718Z,77.87
2023-02-12T08:21:55.978Z,77.26
2023-02-12T08:24:24.615Z,77.25
2023-02-12T08:26:52.320Z,77.41
2023-02-12T08:29:24.100Z,77.57
2023-02-12T08:31:56.901Z,77.20
2023-02-12T08:34:27.723Z,77.73
2023-02-12T08:36:56.196Z,77.38
2023-02-12T08:39:26.338Z,77.58
2023-02-12T08:41:58.238Z,77.31
2023-02-12T08:44:25.671Z,77.27
2023-02-12T08:46:55.466Z,77.68
2023-02-12T08:49:26.632Z,77.36
2023-02-12T08:51:56.143Z,77.54
2023-02-12T08:54:28.456Z,77.57
2023-02-12T08:57:01.740Z,78.14
2023-02-12T08:59:29.629Z,78.13
2023-02-12T09:01:56.604Z,77.95
2023-02-12T09:04:26.816Z,78.17
2023-02-12T09:06:54.748Z,77.48
2023-02-12T09:09:22.169Z,77.94
2023-02-12T09:11:49.417Z,78.28
2023-02-12T09:14:18.895Z,78.23
2023-02-12T09:16:45.919Z,78.01
2023-02-12T09:19:14.487Z,77.69
2023-02-12T09:21:42.196Z,77.94
2023-02-12T09:24:09.724Z,78.07
2023-02-12T09:26:36.940Z,78.02
2023-02-12T09:29:04.505Z,78.15
2023-02-12T09:31:33.281Z,77.85
2023-02-12T09:34:06.676Z,78.28
2023-02-12T09:36:35.632Z,77.97
2023-02-12T09:39:03.894Z,77.94
2023-02-12T09:41:56.258Z,78.07
2023-02-12T09:44:50.501Z,77.97
2023-02-12T09:47:26.744Z,77.63
2023-02-12T09:50:23.080Z,78.37
2023-02-12T09:52:50.858Z,78.45
2023-02-12T09:55:19.426Z,78.18
2023-02-12T09:57:46.697Z,78.10
2023-02-12T10:00:33.656Z,78.23
2023-02-12T10:03:11.538Z,78.70
2023-02-12T10:05:47.712Z,78.14
2023-02-12T10:08:40.027Z,77.96
2023-02-12T10:11:43.525Z,78.11
2023-02-12T10:14:41.937Z,78.45
2023-02-12T10:17:19.630Z,78.30
2023-02-12T10:20:12.387Z,78.70
2023-02-12T10:22:58.586Z,78.34
2023-02-12T10:26:22.328Z,78.46
2023-02-12T10:28:50.652Z,78.67
2023-02-12T10:31:32.224Z,78.67
2023-02-12T10:33:59.218Z,79.10
2023-02-12T10:37:27.484Z,78.64
2023-02-12T10:40:14.006Z,78.74
2023-02-12T10:42:44.822Z,78.95
2023-02-12T10:45:20.001Z,79.22
2023-02-12T10:47:52.799Z,79.03
2023-02-12T10:50:39.330Z,79.14
2023-02-12T10:53:12.892Z,79.65
2023-02-12T10:55:39.873Z,79.32
2023-02-12T10:58:24.158Z,79.72
2023-02-12T11:01:02.206Z,79.42
2023-02-12T11:03:37.555Z,79.49
2023-02-12T11:06:27.813Z,79.46
2023-02-12T11:08:58.588Z,79.65
2023-02-12T11:11:31.306Z,79.35
2023-02-12T11:14:06.980Z,79.73
2023-02-12T11:16:52.103Z,79.71
2023-02-12T11:19:31.579Z,79.71
2023-02-12T11:22:14.630Z,79.90
2023-02-12T11:24:41.552Z,80.08
2023-02-12T11:27:28.677Z,79.96
2023-02-12T11:30:10.652Z,79.92
2023-02-12T11:32:38.225Z,79.50
2023-02-12T11:35:23.996Z,79.83
2023-02-12T11:37:58.264Z,79.67
2023-02-12T11:40:33.694Z,80.16
2023-02-12T11:43:09.215Z,80.29
2023-02-12T11:45:52.717Z,79.93
2023-02-12T11:48:39.577Z,80.22
2023-02-12T11:51:18.190Z,80.05
2023-02-12T11:53:51.148Z,80.10
2023-02-12T11:56:18.837Z,80.10
2023-02-12T11:58:51.794Z,80.40
2023-02-12T12:01:31.013Z,80.13
2023-02-12T12:04:14.352Z,80.03
2023-02-12T12:06:57.152Z,80.21
2023-02-12T12:09:39.589Z,80.45
2023-02-12T12:12:48.949Z,80.89
2023-02-12T12:15:43.104Z,80.56
2023-02-12T12:18:46.740Z,80.59
2023-02-12T12:21:52.918Z,81.23
2023-02-12T12:24:29.678Z,81.01
2023-02-12T12:27:14.311Z,80.79
2023-02-12T12:29:54.953Z,80.63
2023-02-12T12:32:24.348Z,79.85
2023-02-12T12:34:51.858Z,80.16
2023-02-12T12:37:45.497Z,79.88
2023-02-12T12:40:18.160Z,79.65
2023-02-12T12:43:09.348Z,80.39
2023-02-12T12:45:59.536Z,80.63
2023-02-12T12:48:55.582Z,81.28
2023-02-12T12:52:03.371Z,81.19
2023-02-12T12:55:19.487Z,81.64
2023-02-12T12:58:07.632Z,81.87
2023-02-12T13:00:52.501Z,80.43
2023-02-12T13:03:35.121Z,81.23
2023-02-12T13:06:27.099Z,81.20
2023-02-12T13:09:20.411Z,81.44
2023-02-12T13:12:28.139Z,80.84
2023-02-12T13:15:28.862Z,81.57
2023-02-12T13:18:10.712Z,80.75
2023-02-12T13:21:18.204Z,81.83
2023-02-12T13:24:11.627Z,81.82
2023-02-12T13:27:01.470Z,81.91
2023-02-12T13:29:51.573Z,81.24
2023-02-12T13:32:43.155Z,82.01
2023-02-12T13:35:19.600Z,82.53
2023-02-12T13:37:52.768Z,82.21
2023-02-12T13:40:27.190Z,82.01
2023-02-12T13:43:20.754Z,82.11
2023-02-12T13:46:25.134Z,82.05
2023-02-12T13:49:05.832Z,81.83
2023-02-12T13:52:10.685Z,83.20
2023-02-12T13:55:21.039Z,83.20
2023-02-12T13:58:34.643Z,83.55
2023-02-12T14:01:08.701Z,82.02
2023-02-12T14:03:36.976Z,81.79
2023-02-12T14:06:24.842Z,82.96
2023-02-12T14:09:08.161Z,81.75
2023-02-12T14:11:50.218Z,83.09
2023-02-12T14:14:39.075Z,83.11
2023-02-12T14:17:30.936Z,83.41
2023-02-12T14:20:29.224Z,83.04
2023-02-12T14:23:24.379Z,82.76
2023-02-12T14:26:10.591Z,82.78
2023-02-12T14:29:01.825Z,83.06
2023-02-12T14:31:39.325Z,82.50
2023-02-12T14:34:06.277Z,81.38
2023-02-12T14:36:33.063Z,81.91
2023-02-12T14:39:05.906Z,81.99
2023-02-12T14:41:41.778Z,81.94
2023-02-12T14:44:30.599Z,82.64
2023-02-12T14:47:05.128Z,81.83
2023-02-12T14:49:47.487Z,81.99
2023-02-12T14:52:14.398Z,81.74
2023-02-12T14:55:07.653Z,82.59
2023-02-12T14:57:41.084Z,81.34
2023-02-12T15:00:17.197Z,82.19
2023-02-12T15:03:02.736Z,81.35
2023-02-12T15:05:38.141Z,79.85
2023-02-12T15:08:18.360Z,80.84
2023-02-12T15:10:55.069Z,79.49
2023-02-12T15:13:30.105Z,79.65
2023-02-12T15:16:22.217Z,79.92
2023-02-12T15:19:00.144Z,79.58
2023-02-12T15:21:31.520Z,78.91
2023-02-12T15:24:08.350Z,79.25
2023-02-12T15:26:48.192Z,79.82
2023-02-12T15:29:25.809Z,79.97
2023-02-12T15:31:56.952Z,79.20
2023-02-12T15:34:29.949Z,79.16
2023-02-12T15:37:00.964Z,79.65
2023-02-12T15:39:44.471Z,80.26
2023-02-12T15:42:38.255Z,80.44
2023-02-12T15:45:14.294Z,79.80
2023-02-12T15:47:43.657Z,79.20
2023-02-12T15:50:16.993Z,79.23
2023-02-12T15:52:47.245Z,79.32
2023-02-12T15:55:25.591Z,79.41
2023-02-12T15:57:58.688Z,79.26
2023-02-12T16:00:47.603Z,79.54
2023-02-12T16:03:33.886Z,79.40
2023-02-12T16:06:14.030Z,79.08
2023-02-12T16:08:48.879Z,78.86
2023-02-12T16:11:21.142Z,78.54
2023-02-12T16:13:52.672Z,78.56
2023-02-12T16:16:30.181Z,78.80
2023-02-12T16:19:26.223Z,78.13
2023-02-12T16:22:05.168Z,78.10
2023-02-12T16:24:45.536Z,77.78
2023-02-12T16:27:15.458Z,77.81
2023-02-12T16:29:56.419Z,78.17
2023-02-12T16:32:28.986Z,78.26
2023-02-12T16:35:07.299Z,77.89
2023-02-12T16:37:37.206Z,77.59
2023-02-12T16:40:13.283Z,77.36
2023-02-12T16:42:56.034Z,77.31
2023-02-12T16:45:28.493Z,77.42
2023-02-12T16:48:08.631Z,77.19
2023-02-12T16:50:43.350Z,76.67
2023-02-12T16:53:47.249Z,77.22
2023-02-12T16:56:21.135Z,76.47
2023-02-12T16:58:57.338Z,76.56
2023-02-12T17:01:36.296Z,76.60
2023-02-12T17:04:13.991Z,76.64
2023-02-12T17:06:40.924Z,76.15
2023-02-12T17:09:07.854Z,76.26
2023-02-12T17:11:34.859Z,75.82
2023-02-12T17:14:01.794Z,76.19
2023-02-12T17:16:31.081Z,75.96
2023-02-12T17:19:00.009Z,75.74
2023-02-12T17:21:38.259Z,75.93
2023-02-12T17:24:28.122Z,75.25
2023-02-12T17:26:55.672Z,75.42
2023-02-12T17:29:24.758Z,75.78
2023-02-12T17:31:56.067Z,75.83
2023-02-12T17:34:24.402Z,75.72
2023-02-12T17:36:52.112Z,75.68
2023-02-12T17:39:19.741Z,75.44
2023-02-12T17:41:47.072Z,75.56
2023-02-12T17:44:15.401Z,75.20
2023-02-12T17:46:43.171Z,75.30
2023-02-12T17:49:10.350Z,75.57
2023-02-12T17:51:37.828Z,75.26
2023-02-12T17:54:05.190Z,75.20
2023-02-12T17:56:32.417Z,75.53
2023-02-12T17:58:59.478Z,75.47
2023-02-12T18:01:26.762Z,75.05
2023-02-12T18:03:55.671Z,75.14
2023-02-12T18:06:28.504Z,75.38
2023-02-12T18:08:57.993Z,75.05
2023-02-12T18:11:25.481Z,75.05
2023-02-12T18:13:55.545Z,75.00
2023-02-12T18:16:24.953Z,75.32
2023-02-12T18:18:51.947Z,75.11
2023-02-12T18:21:20.184Z,74.93
2023-02-12T18:23:47.478Z,74.90
2023-02-12T18:26:18.066Z,74.91
2023-02-12T18:28:45.472Z,74.65
2023-02-12T18:31:13.252Z,74.98
2023-02-12T18:33:41.058Z,75.23
2023-02-12T18:36:12.671Z,75.30
2023-02-12T18:38:42.047Z,75.16
2023-02-12T18:41:23.995Z,74.60
2023-02-12T18:43:51.031Z,74.85
2023-02-12T18:46:30.242Z,74.83
2023-02-12T18:48:58.494Z,75.20
2023-02-12T18:51:29.500Z,74.97
2023-02-12T18:54:01.792Z,74.24
2023-02-12T18:56:31.019Z,75.11
2023-02-12T18:59:04.124Z,75.26
2023-02-12T19:01:32.885Z,74.78
2023-02-12T19:04:04.557Z,74.95
2023-02-12T19:06:33.929Z,75.19
2023-02-12T19:09:03.679Z,74.94
2023-02-12T19:11:31.693Z,74.90
2023-02-12T19:13:59.032Z,75.12
2023-02-12T19:16:27.138Z,75.45
2023-02-12T19:18:58.438Z,75.53
2023-02-12T19:21:26.347Z,75.17
2023-02-12T19:23:59.794Z,76.11
2023-02-12T19:26:29.512Z,75.45
2023-02-12T19:28:57.564Z,75.39
2023-02-12T19:31:35.561Z,75.63
2023-02-12T19:34:14.494Z,75.41
2023-02-12T19:36:42.522Z,75.27
2023-02-12T19:39:13.771Z,75.67
2023-02-12T19:41:41.086Z,75.68
2023-02-12T19:44:19.107Z,75.78
2023-02-12T19:46:47.618Z,75.43
2023-02-12T19:49:24.127Z,74.97
2023-02-12T19:51:51.470Z,75.78
2023-02-12T19:54:21.071Z,75.56
2023-02-12T19:56:48.479Z,75.58
2023-02-12T19:59:18.937Z,75.55
2023-02-12T20:01:48.047Z,75.57
2023-02-12T20:04:18.857Z,75.63
2023-02-12T20:06:46.857Z,75.96
2023-02-12T20:09:14.053Z,75.79
2023-02-12T20:11:41.245Z,75.75
2023-02-12T20:14:11.514Z,75.88
2023-02-12T20:16:41.573Z,76.01
2023-02-12T20:19:30.262Z,76.17
2023-02-12T20:21:58.341Z,76.10
2023-02-12T20:24:31.035Z,76.92
2023-02-12T20:27:00.355Z,75.82
2023-02-12T20:29:27.946Z,77.12
2023-02-12T20:31:55.034Z,76.67
2023-02-12T20:34:22.417Z,76.62
2023-02-12T20:36:49.431Z,76.88
2023-02-12T20:39:19.292Z,78.09
2023-02-12T20:41:46.659Z,77.29
2023-02-12T20:44:21.159Z,76.30
2023-02-12T20:46:55.596Z,76.56
2023-02-12T20:49:24.165Z,76.73
2023-02-12T20:51:51.124Z,76.75
2023-02-12T20:54:18.138Z,77.57
2023-02-12T20:56:45.118Z,76.40
2023-02-12T20:59:12.445Z,76.52
2023-02-12T21:01:41.829Z,77.12
2023-02-12T21:04:14.495Z,76.90
2023-02-12T21:06:41.930Z,77.41
2023-02-12T21:09:10.889Z,77.57
2023-02-12T21:11:39.856Z,78.60
2023-02-12T21:14:21.234Z,79.20
2023-02-12T21:16:49.206Z,78.99
2023-02-12T21:19:16.918Z,78.91
2023-02-12T21:21:45.204Z,77.69
2023-02-12T21:24:21.375Z,77.88
2023-02-12T21:26:49.935Z,78.22
2023-02-12T21:29:16.991Z,79.88
2023-02-12T21:31:46.813Z,79.41
2023-02-12T21:34:18.375Z,79.23
2023-02-12T21:36:47.235Z,78.94
2023-02-12T21:39:27.163Z,78.64
2023-02-12T21:42:02.648Z,79.82
2023-02-12T21:44:32.495Z,80.17
2023-02-12T21:46:59.633Z,80.24
2023-02-12T21:49:27.889Z,80.24
2023-02-12T21:51:59.338Z,80.54
2023-02-12T21:54:26.929Z,80.97
2023-02-12T21:56:53.951Z,80.90
2023-02-12T21:59:21.192Z,80.98
2023-02-12T22:01:51.684Z,81.18
2023-02-12T22:04:19.461Z,80.13
2023-02-12T22:06:49.575Z,80.02
2023-02-12T22:09:21.184Z,79.37
2023-02-12T22:11:48.358Z,79.74
2023-02-12T22:14:17.925Z,79.97
2023-02-12T22:16:45.563Z,80.67
2023-02-12T22:19:13.111Z,80.40
2023-02-12T22:21:42.262Z,79.92
2023-02-12T22:24:13.364Z,79.90
2023-02-12T22:26:40.297Z,78.99
2023-02-12T22:29:10.706Z,78.96
2023-02-12T22:31:40.418Z,79.05
2023-02-12T22:34:16.160Z,78.77
2023-02-12T22:36:43.602Z,79.11
2023-02-12T22:39:13.201Z,78.72
2023-02-12T22:41:42.034Z,78.50
2023-02-12T22:44:11.567Z,78.58
2023-02-12T22:46:38.559Z,78.33
2023-02-12T22:49:05.525Z,78.31
2023-02-12T22:51:34.405Z,78.91
2023-02-12T22:54:01.447Z,78.53
2023-02-12T22:56:28.762Z,78.55
2023-02-12T22:58:59.278Z,78.89
2023-02-12T23:01:27.053Z,78.84
2023-02-12T23:03:54.620Z,79.85
2023-02-12T23:06:29.151Z,79.24
2023-02-12T23:09:00.612Z,78.54
2023-02-12T23:11:30.277Z,79.28
2023-02-12T23:13:58.926Z,78.53
2023-02-12T23:16:26.144Z,78.93
2023-02-12T23:18:58.556Z,78.21
2023-02-12T23:21:27.726Z,78.50
2023-02-12T23:23:55.269Z,79.43
2023-02-12T23:26:22.731Z,78.77
2023-02-12T23:28:49.707Z,78.57
2023-02-12T23:31:16.985Z,79.36
2023-02-12T23:33:44.047Z,78.74
2023-02-12T23:36:10.977Z,78.59
2023-02-12T23:38:37.910Z,79.14
2023-02-12T23:41:05.426Z,79.47
2023-02-12T23:43:33.247Z,79.24
2023-02-12T23:46:00.699Z,78.81
2023-02-12T23:48:27.680Z,79.00
2023-02-12T23:50:54.661Z,78.46
2023-02-12T23:53:22.340Z,78.26
2023-02-12T23:55:52.553Z,78.49
2023-02-12T23:58:19.968Z,78.27
